Time;durP1;ratioP1;P1;durP2;ratioP2;P2;SDS_P1;SDS_P2;PMS_P1;PMS_P2;Temp;Humidity;BMP_temperature;BMP_pressure;BME280_temperature;BME280_humidity;BME280_pressure;Samples;Min_cycle;Max_cycle;Signal;HPM_P1;HPM_P2
2023/01/15 06:01:44;;;;;;;3.67;3.07;;;8.20;99.90;;;;;;7689459;28;20229;-88
2023/01/15 06:05:50;;;;;;;3.43;2.90;;;8.20;99.90;;;;;;7690167;29;20235;-94
2023/01/15 06:09:39;;;;;;;3.10;2.53;;;8.20;99.90;;;;;;7703033;28;20217;-88
2023/01/15 06:13:25;;;;;;;2.97;2.70;;;8.20;99.90;;;;;;7693730;29;20219;-93
2023/01/15 06:17:10;;;;;;;3.40;3.07;;;8.20;99.90;;;;;;7690034;29;20222;-90
2023/01/15 06:20:56;;;;;;;3.87;3.37;;;8.20;99.90;;;;;;7692158;28;20212;-91
2023/01/15 06:24:42;;;;;;;4.57;4.00;;;8.20;99.90;;;;;;7686292;29;20284;-92
2023/01/15 06:28:28;;;;;;;5.97;4.10;;;8.20;99.90;;;;;;7686097;29;20201;-91
2023/01/15 06:32:13;;;;;;;5.53;4.10;;;8.30;99.90;;;;;;7685862;28;20240;-91
2023/01/15 06:36:05;;;;;;;7.03;4.30;;;8.30;99.90;;;;;;7686036;28;20199;-91
2023/01/15 06:48:21;;;;;;;4.47;3.90;;;8.30;99.90;;;;;;7743103;28;20224;-91
2023/01/15 06:52:06;;;;;;;5.67;4.40;;;8.30;99.90;;;;;;7744647;28;20255;-89
2023/01/15 06:55:52;;;;;;;4.67;3.70;;;8.30;99.90;;;;;;7744725;28;20184;-91
2023/01/15 08:37:57;;;;;;;0.60;0.60;;;7.20;99.90;;;;;;7779220;28;20610;-90
2023/01/15 08:41:43;;;;;;;1.40;0.67;;;7.30;99.90;;;;;;7746927;28;20230;-90
2023/01/15 08:45:29;;;;;;;3.37;2.67;;;7.20;99.90;;;;;;7747249;28;20660;-91
2023/01/15 12:49:33;;;;;;;1.33;1.10;;;5.90;99.90;;;;;;9372351;23;20229;-92
2023/01/15 12:53:30;;;;;;;1.93;1.37;;;5.80;99.90;;;;;;7740505;28;20211;-93
2023/01/15 12:57:23;;;;;;;3.00;1.20;;;5.80;99.90;;;;;;7716209;29;20193;-94
2023/01/15 13:01:15;;;;;;;0.77;0.70;;;5.90;99.90;;;;;;7717065;28;20281;-94
2023/01/15 13:49:48;;;;;;;1.33;0.90;;;6.10;99.90;;;;;;9534556;22;20217;-85
2023/01/15 13:53:58;;;;;;;0.80;0.70;;;6.00;99.90;;;;;;7687686;28;20224;-94
2023/01/15 13:57:44;;;;;;;1.53;0.70;;;6.10;99.90;;;;;;7687056;29;20217;-85
2023/01/15 14:01:29;;;;;;;1.70;0.67;;;6.00;99.90;;;;;;7683856;28;20193;-85
2023/01/15 14:14:32;;;;;;;39.23;17.33;;;6.10;99.90;;;;;;7711524;28;20217;-92
2023/01/15 14:18:40;;;;;;;104.33;41.20;;;6.10;99.90;;;;;;7700910;28;20225;-93
2023/01/15 14:23:02;;;;;;;3.50;2.53;;;6.00;99.90;;;;;;7686108;28;20197;-90
2023/01/15 14:27:09;;;;;;;1.33;1.00;;;6.00;99.90;;;;;;7685181;28;20220;-90
2023/01/15 14:30:57;;;;;;;2.60;0.70;;;6.00;99.90;;;;;;7686130;28;20185;-90
2023/01/15 14:34:43;;;;;;;1.60;0.63;;;6.00;99.90;;;;;;7685644;28;20209;-90
2023/01/15 14:38:29;;;;;;;1.63;0.50;;;6.10;99.90;;;;;;7701456;28;20741;-90
2023/01/15 14:46:29;;;;;;;1.03;0.70;;;6.10;99.90;;;;;;7686150;28;20197;-90
2023/01/15 14:50:21;;;;;;;0.70;0.60;;;5.90;99.90;;;;;;7687165;28;20200;-90
2023/01/15 14:54:10;;;;;;;0.97;0.70;;;5.80;99.90;;;;;;7685125;28;20210;-90
2023/01/15 14:58:07;;;;;;;0.83;0.70;;;5.80;99.90;;;;;;7685045;29;20220;-90
2023/01/15 15:02:01;;;;;;;0.60;0.50;;;5.70;99.90;;;;;;7685282;29;20260;-90
2023/01/15 15:05:47;;;;;;;2.20;1.60;;;5.60;99.90;;;;;;7686474;28;20300;-90
2023/01/15 15:10:11;;;;;;;1.20;0.93;;;5.60;99.90;;;;;;7684957;29;20193;-90
2023/01/15 15:13:58;;;;;;;0.70;0.50;;;5.60;99.90;;;;;;7685330;28;20209;-90
2023/01/15 15:18:11;;;;;;;0.57;0.50;;;5.60;99.90;;;;;;7684317;29;20220;-89
2023/01/15 15:22:01;;;;;;;1.53;1.10;;;5.60;99.90;;;;;;7685223;28;20212;-90
2023/01/15 15:26:01;;;;;;;1.10;0.70;;;5.60;99.90;;;;;;7684875;28;20210;-90
2023/01/15 15:29:47;;;;;;;1.60;0.90;;;5.60;99.90;;;;;;7684750;29;20177;-90
2023/01/15 15:33:39;;;;;;;0.80;0.80;;;5.60;99.90;;;;;;7686286;28;20216;-91
2023/01/15 15:37:27;;;;;;;0.80;0.50;;;5.50;99.90;;;;;;7689394;28;20189;-90
2023/01/15 15:41:12;;;;;;;0.83;0.70;;;5.60;99.90;;;;;;7690970;29;20191;-90
2023/01/15 15:49:04;;;;;;;3.93;2.47;;;5.50;99.90;;;;;;7691762;29;20655;-90
2023/01/15 15:52:51;;;;;;;0.67;0.63;;;5.30;99.90;;;;;;7691557;28;20213;-90
2023/01/15 15:56:40;;;;;;;4.77;2.60;;;5.40;99.90;;;;;;7689547;28;20308;-90
2023/01/15 16:00:32;;;;;;;0.80;0.70;;;5.50;99.90;;;;;;7690139;29;20217;-90
2023/01/15 16:04:19;;;;;;;1.00;0.90;;;5.30;99.90;;;;;;7706150;28;20213;-90
2023/01/15 16:08:17;;;;;;;1.97;1.20;;;5.30;99.90;;;;;;7689706;29;20221;-90
2023/01/15 16:12:06;;;;;;;2.27;1.20;;;5.30;99.90;;;;;;7691130;28;20208;-90
2023/01/15 16:15:53;;;;;;;0.93;0.70;;;5.20;99.90;;;;;;7689726;28;20224;-90
2023/01/15 16:19:39;;;;;;;3.67;1.03;;;5.30;99.90;;;;;;7688103;29;20447;-90
2023/01/15 16:23:27;;;;;;;1.67;1.20;;;5.40;99.90;;;;;;7688514;28;20849;-85
2023/01/15 16:27:20;;;;;;;3.97;1.40;;;5.40;99.90;;;;;;7680732;28;20667;-88
2023/01/15 16:31:07;;;;;;;3.37;0.80;;;5.60;99.90;;;;;;7672200;29;20189;-89
2023/01/15 16:35:14;;;;;;;1.13;0.57;;;5.60;99.90;;;;;;7675137;28;20244;-87
2023/01/15 16:39:00;;;;;;;1.47;0.67;;;5.70;99.10;;;;;;7692998;28;20236;-86
2023/01/15 16:42:47;;;;;;;1.10;0.80;;;5.50;99.30;;;;;;7685314;29;20197;-89
2023/01/15 16:46:37;;;;;;;1.87;0.90;;;5.50;99.60;;;;;;7686117;28;20241;-88
2023/01/15 16:50:23;;;;;;;1.57;0.63;;;5.50;99.90;;;;;;7688224;28;20234;-87
2023/01/15 16:54:27;;;;;;;0.83;0.60;;;5.40;99.90;;;;;;7689182;28;20216;-88
2023/01/15 16:58:16;;;;;;;2.17;1.47;;;5.40;99.90;;;;;;7687161;29;20221;-88
2023/01/15 17:02:01;;;;;;;4.87;2.10;;;5.50;99.90;;;;;;7682502;28;20189;-88
2023/01/15 17:05:58;;;;;;;1.20;0.80;;;5.50;99.90;;;;;;7682416;28;20213;-88
2023/01/15 17:09:51;;;;;;;1.37;0.90;;;5.50;99.90;;;;;;7686556;28;20189;-87
2023/01/15 17:13:39;;;;;;;1.87;0.70;;;5.40;99.90;;;;;;7688117;28;20233;-88
2023/01/15 17:17:27;;;;;;;1.70;1.13;;;5.40;99.90;;;;;;7681255;28;20231;-87
2023/01/15 17:21:27;;;;;;;1.00;0.60;;;5.30;99.90;;;;;;7675325;29;20189;-87
2023/01/15 17:25:25;;;;;;;3.20;0.80;;;5.20;99.90;;;;;;7687814;28;20241;-88
2023/01/15 17:29:12;;;;;;;1.47;0.77;;;5.20;99.90;;;;;;7685956;28;20181;-88
2023/01/15 17:33:02;;;;;;;1.97;0.90;;;5.20;99.80;;;;;;7691583;28;20185;-86
2023/01/15 17:36:49;;;;;;;1.10;0.53;;;5.00;99.90;;;;;;7686822;28;20212;-88
2023/01/15 17:40:35;;;;;;;2.77;0.80;;;5.00;99.90;;;;;;7687700;28;20205;-87
2023/01/15 17:44:20;;;;;;;1.50;0.87;;;4.90;99.90;;;;;;7687126;28;20304;-88
2023/01/15 17:48:08;;;;;;;0.87;0.83;;;4.90;99.90;;;;;;7685270;28;20186;-87
2023/01/15 17:51:54;;;;;;;6.50;3.03;;;4.90;99.90;;;;;;7686918;28;20248;-87
2023/01/15 18:08:04;;;;;;;2.33;1.00;;;4.90;99.90;;;;;;7666254;29;20201;-89
2023/01/15 18:11:50;;;;;;;1.20;0.80;;;5.00;99.90;;;;;;7680730;28;20201;-87
2023/01/15 18:15:36;;;;;;;4.73;2.47;;;4.90;99.50;;;;;;7684393;28;20211;-86
2023/01/15 18:19:21;;;;;;;4.50;2.07;;;4.70;99.70;;;;;;7684956;28;20333;-87
2023/01/15 18:23:07;;;;;;;2.27;1.20;;;4.80;99.90;;;;;;7676228;28;20194;-86
2023/01/15 18:26:54;;;;;;;2.60;1.57;;;4.90;99.90;;;;;;7654924;29;20201;-87
2023/01/15 18:30:41;;;;;;;4.70;1.47;;;4.80;99.90;;;;;;7669011;29;20189;-89
2023/01/15 18:34:28;;;;;;;0.57;0.50;;;4.80;99.90;;;;;;7684969;29;20210;-89
2023/01/15 18:38:14;;;;;;;3.53;0.83;;;4.70;99.70;;;;;;7685014;29;20217;-89
2023/01/15 18:49:53;;;;;;;2.57;1.00;;;4.80;99.90;;;;;;7678553;29;20201;-89
2023/01/15 18:53:41;;;;;;;1.53;1.00;;;4.80;99.20;;;;;;7684078;29;20224;-89
2023/01/15 18:57:27;;;;;;;4.63;1.00;;;4.80;99.40;;;;;;7654535;28;20190;-90
2023/01/15 19:01:12;;;;;;;1.50;1.00;;;4.80;99.20;;;;;;7654791;28;20193;-88
2023/01/15 19:04:58;;;;;;;1.07;0.40;;;4.80;99.50;;;;;;7654497;29;20298;-89
2023/01/15 19:13:26;;;;;;;2.03;0.70;;;4.70;98.80;;;;;;8196147;23;20232;-87
2023/01/15 19:21:25;;;;;;;2.33;1.17;;;4.60;99.50;;;;;;7707050;28;20252;-89
2023/01/15 19:25:11;;;;;;;1.63;0.80;;;4.80;99.90;;;;;;7712482;28;20200;-88
2023/01/15 21:51:15;;;;;;;2.30;0.50;;;4.60;98.70;;;;;;8133610;23;20224;-86
2023/01/15 21:55:00;;;;;;;1.37;0.60;;;4.50;98.90;;;;;;7745525;28;20245;-89
2023/01/15 23:00:55;;;;;;;3.43;0.80;;;4.50;99.90;;;;;;7742107;28;20216;-87
2023/01/15 23:04:41;;;;;;;1.47;0.60;;;4.60;99.90;;;;;;7760169;28;20191;-88
2023/01/15 23:08:30;;;;;;;2.57;0.90;;;4.60;99.90;;;;;;7717130;28;20216;-87
2023/01/15 23:12:16;;;;;;;1.10;0.60;;;4.70;99.90;;;;;;7714218;28;20229;-87
